createdAt,value
2016-11-30T00:00:06.443Z,16.47
2016-11-30T00:00:34.715Z,16.44
2016-11-30T00:01:02.803Z,16.49
2016-11-30T00:01:30.955Z,16.45
2016-11-30T00:01:59.261Z,16.4
2016-11-30T00:02:27.395Z,16.44
2016-11-30T00:02:55.583Z,16.47
2016-11-30T00:03:23.790Z,16.48
2016-11-30T00:03:51.946Z,16.51
2016-11-30T00:04:20.016Z,16.47
2016-11-30T00:04:48.199Z,16.58
2016-11-30T00:05:16.410Z,16.51
2016-11-30T00:05:44.711Z,16.49
2016-11-30T00:06:12.924Z,16.51
2016-11-30T00:06:41.100Z,16.52
2016-11-30T00:07:09.247Z,16.52
2016-11-30T00:07:37.426Z,16.52
2016-11-30T00:08:05.518Z,16.52
2016-11-30T00:08:33.790Z,16.51
2016-11-30T00:09:01.818Z,16.48
2016-11-30T00:09:30.067Z,16.51
2016-11-30T00:09:58.342Z,16.52
2016-11-30T00:10:26.244Z,16.52
2016-11-30T00:10:54.414Z,16.52
2016-11-30T00:11:22.603Z,16.52
2016-11-30T00:11:50.776Z,16.49
2016-11-30T00:12:19.041Z,16.49
2016-11-30T00:12:47.204Z,16.44
2016-11-30T00:13:15.396Z,16.42
2016-11-30T00:13:43.665Z,16.44
2016-11-30T00:14:11.891Z,16.48
2016-11-30T00:14:40.106Z,16.47
2016-11-30T00:15:08.316Z,16.47
2016-11-30T00:15:36.442Z,16.48
2016-11-30T00:16:04.705Z,16.52
2016-11-30T00:16:32.935Z,16.44
2016-11-30T00:17:01.120Z,16.47
2016-11-30T00:17:29.412Z,16.47
2016-11-30T00:17:57.499Z,16.39
2016-11-30T00:18:25.585Z,16.4
2016-11-30T00:18:53.706Z,16.4
2016-11-30T00:19:21.876Z,16.37
2016-11-30T00:19:50.184Z,16.33
2016-11-30T00:20:18.333Z,16.33
2016-11-30T00:20:46.584Z,16.37
2016-11-30T00:21:14.649Z,16.3
2016-11-30T00:21:42.747Z,16.3
2016-11-30T00:22:10.902Z,16.22
2016-11-30T00:22:39.151Z,16.26
2016-11-30T00:23:07.072Z,16.26
2016-11-30T00:23:35.172Z,16.21
2016-11-30T00:24:03.516Z,16.18
2016-11-30T00:24:31.697Z,16.25
2016-11-30T00:24:59.976Z,16.21
2016-11-30T00:25:28.147Z,16.18
2016-11-30T00:25:56.287Z,16.33
2016-11-30T00:26:24.477Z,16.3
2016-11-30T00:26:52.557Z,16.25
2016-11-30T00:27:20.635Z,16.3
2016-11-30T00:27:48.675Z,16.27
2016-11-30T00:28:16.874Z,16.3
2016-11-30T00:28:45.120Z,16.26
2016-11-30T00:29:13.380Z,16.32
2016-11-30T00:29:41.464Z,16.36
2016-11-30T00:30:09.751Z,16.26
2016-11-30T00:30:38.034Z,16.29
2016-11-30T00:31:05.963Z,16.29
2016-11-30T00:31:34.149Z,16.26
2016-11-30T00:32:02.411Z,16.39
2016-11-30T00:32:30.644Z,16.33
2016-11-30T00:32:58.848Z,16.33
2016-11-30T00:33:27.077Z,16.37
2016-11-30T00:33:55.335Z,16.36
2016-11-30T00:34:23.454Z,16.45
2016-11-30T00:34:51.727Z,16.39
2016-11-30T00:35:19.955Z,16.4
2016-11-30T00:35:48.238Z,16.45
2016-11-30T00:36:16.420Z,16.39
2016-11-30T00:36:44.585Z,16.39
2016-11-30T00:37:12.870Z,16.4
2016-11-30T00:37:41.031Z,16.34
2016-11-30T00:38:09.299Z,16.4
2016-11-30T00:38:37.464Z,16.39
2016-11-30T00:39:05.516Z,16.34
2016-11-30T00:39:33.583Z,16.36
2016-11-30T00:40:01.663Z,16.34
2016-11-30T00:40:29.911Z,16.25
2016-11-30T00:40:58.289Z,16.25
2016-11-30T00:41:26.551Z,16.33
2016-11-30T00:41:54.825Z,16.32
2016-11-30T00:42:22.936Z,16.33
2016-11-30T00:42:51.086Z,16.25
2016-11-30T00:43:50.901Z,16.29
2016-11-30T00:44:19.073Z,16.29
2016-11-30T00:44:47.219Z,16.22
2016-11-30T00:45:15.396Z,16.17
2016-11-30T00:45:43.496Z,16.26
2016-11-30T00:46:11.784Z,16.25
2016-11-30T00:46:39.945Z,16.21
2016-11-30T00:47:08.024Z,16.18
2016-11-30T00:47:36.327Z,16.17
2016-11-30T00:48:04.602Z,16.18
2016-11-30T00:48:32.812Z,16.13
2016-11-30T00:49:00.962Z,16.16
2016-11-30T00:49:29.075Z,16.18
2016-11-30T00:49:57.333Z,16.21
2016-11-30T00:50:25.533Z,16.13
2016-11-30T00:50:53.677Z,16.14
2016-11-30T00:51:21.759Z,16.32
2016-11-30T00:51:49.872Z,16.33
2016-11-30T00:52:18.065Z,16.33
2016-11-30T00:52:46.075Z,16.29
2016-11-30T00:53:14.343Z,16.37
2016-11-30T00:53:42.648Z,16.33
2016-11-30T00:54:10.902Z,16.32
2016-11-30T00:54:39.008Z,16.34
2016-11-30T00:55:07.051Z,16.4
2016-11-30T00:55:35.068Z,16.4
2016-11-30T00:56:03.338Z,16.36
2016-11-30T00:56:31.397Z,16.36
2016-11-30T00:56:59.726Z,16.32
2016-11-30T00:57:27.960Z,16.3
2016-11-30T00:57:56.020Z,16.32
2016-11-30T00:58:24.065Z,16.3
2016-11-30T00:58:52.238Z,16.26
2016-11-30T00:59:20.128Z,16.3
2016-11-30T00:59:48.198Z,16.29
2016-11-30T01:00:16.356Z,16.32
2016-11-30T01:01:21.867Z,16.21
2016-11-30T01:01:50.027Z,16.21
2016-11-30T01:02:18.133Z,16.22
2016-11-30T01:02:46.315Z,16.22
2016-11-30T01:03:14.348Z,16.18
2016-11-30T01:03:42.506Z,16.16
2016-11-30T01:04:10.681Z,16.22
2016-11-30T01:04:38.828Z,16.11
2016-11-30T01:05:07.088Z,16.17
2016-11-30T01:06:01.243Z,16.18
2016-11-30T01:06:29.436Z,16.16
2016-11-30T01:06:57.530Z,16.14
2016-11-30T01:07:25.717Z,16.11
2016-11-30T01:07:53.994Z,16.11
2016-11-30T01:08:22.064Z,16.13
2016-11-30T01:08:50.239Z,16.18
2016-11-30T01:09:18.337Z,16.07
2016-11-30T01:09:46.413Z,16.13
2016-11-30T01:10:14.519Z,16.16
2016-11-30T01:10:42.703Z,16.07
2016-11-30T01:11:10.923Z,16.13
2016-11-30T01:11:39.370Z,16.16
2016-11-30T01:12:07.696Z,16.13
2016-11-30T01:12:35.894Z,16.16
2016-11-30T01:13:04.089Z,16.11
2016-11-30T01:14:09.535Z,16.16
2016-11-30T01:14:37.837Z,16.14
2016-11-30T01:15:06.115Z,16.18
2016-11-30T01:15:34.296Z,16.16
2016-11-30T01:16:02.590Z,16.21
2016-11-30T01:16:30.967Z,16.16
2016-11-30T01:16:58.953Z,16.14
2016-11-30T01:17:27.005Z,16.16
2016-11-30T01:17:55.108Z,16.14
2016-11-30T01:18:23.299Z,16.18
2016-11-30T01:18:51.539Z,16.18
2016-11-30T01:19:19.642Z,16.21
2016-11-30T01:19:47.724Z,16.26
2016-11-30T01:20:15.645Z,16.11
2016-11-30T01:20:43.585Z,16.11
2016-11-30T01:21:11.729Z,16.13
2016-11-30T01:21:39.975Z,16.11
2016-11-30T01:22:08.155Z,16.14
2016-11-30T01:22:36.418Z,16.1
2016-11-30T01:23:04.403Z,16.11
2016-11-30T01:23:32.390Z,16.14
2016-11-30T01:24:00.624Z,16.11
2016-11-30T01:24:28.683Z,16.17
2016-11-30T01:24:56.848Z,16.1
2016-11-30T01:25:25.071Z,16.14
2016-11-30T01:25:53.215Z,16.07
2016-11-30T01:26:21.421Z,16.11
2016-11-30T01:26:49.517Z,16.21
2016-11-30T01:27:17.701Z,16.16
2016-11-30T01:27:45.978Z,16.18
2016-11-30T01:28:14.077Z,16.18
2016-11-30T01:28:42.199Z,16.25
2016-11-30T01:29:10.394Z,16.27
2016-11-30T01:29:59.001Z,16.25
2016-11-30T01:30:27.172Z,16.32
2016-11-30T01:30:55.352Z,16.25
2016-11-30T01:31:23.230Z,16.3
2016-11-30T01:31:51.548Z,16.14
2016-11-30T01:32:19.832Z,16.29
2016-11-30T01:32:48.072Z,16.3
2016-11-30T01:33:16.061Z,16.27
2016-11-30T01:33:44.234Z,16.27
2016-11-30T01:34:12.409Z,16.3
2016-11-30T01:34:40.448Z,16.27
2016-11-30T01:35:08.520Z,16.32
2016-11-30T01:35:36.583Z,16.3
2016-11-30T01:36:04.777Z,16.34
2016-11-30T01:36:33.039Z,16.33
2016-11-30T01:37:01.352Z,16.26
2016-11-30T01:37:29.496Z,16.36
2016-11-30T01:37:57.687Z,16.33
2016-11-30T01:38:25.874Z,16.32
2016-11-30T01:38:53.934Z,16.36
2016-11-30T01:39:22.106Z,16.3
2016-11-30T01:39:50.340Z,16.32
2016-11-30T01:40:18.259Z,16.37
2016-11-30T01:40:46.423Z,16.34
2016-11-30T01:41:14.533Z,16.34
2016-11-30T01:41:42.792Z,16.34
2016-11-30T01:42:10.851Z,16.34
2016-11-30T01:42:39.098Z,16.33
2016-11-30T01:43:07.153Z,16.34
2016-11-30T01:43:35.192Z,16.39
2016-11-30T01:44:03.388Z,16.37
2016-11-30T01:44:31.527Z,16.36
2016-11-30T01:44:59.725Z,16.39
2016-11-30T01:46:10.923Z,16.39
2016-11-30T01:46:39.239Z,16.36
2016-11-30T01:47:07.389Z,16.39
2016-11-30T01:47:35.558Z,16.44
2016-11-30T01:48:03.842Z,16.37
2016-11-30T01:48:31.996Z,16.37
2016-11-30T01:49:00.228Z,16.32
2016-11-30T01:49:28.412Z,16.39
2016-11-30T01:49:56.492Z,16.39
2016-11-30T01:50:24.625Z,16.44
2016-11-30T01:50:52.751Z,16.42
2016-11-30T01:51:20.906Z,16.4
2016-11-30T01:51:49.219Z,16.36
2016-11-30T01:52:17.322Z,16.36
2016-11-30T01:52:45.388Z,16.34
2016-11-30T01:53:13.280Z,16.36
2016-11-30T01:53:41.330Z,16.36
2016-11-30T01:54:09.432Z,16.42
2016-11-30T01:54:37.480Z,16.33
2016-11-30T01:55:05.592Z,16.37
2016-11-30T01:55:33.789Z,16.39
2016-11-30T01:56:01.881Z,16.36
2016-11-30T01:56:30.064Z,16.37
2016-11-30T01:56:58.456Z,16.42
2016-11-30T01:57:26.610Z,16.39
2016-11-30T01:57:54.714Z,16.37
2016-11-30T01:58:22.911Z,16.36
2016-11-30T01:58:50.946Z,16.33
2016-11-30T01:59:19.184Z,16.42
2016-11-30T01:59:47.335Z,16.39
2016-11-30T02:00:15.312Z,16.39
2016-11-30T02:00:43.584Z,16.37
2016-11-30T02:01:11.545Z,16.36
2016-11-30T02:01:39.759Z,16.36
2016-11-30T02:02:08.041Z,16.37
2016-11-30T02:02:36.289Z,16.36
2016-11-30T02:03:04.603Z,16.36
2016-11-30T02:03:32.760Z,16.39
2016-11-30T02:04:00.999Z,16.37
2016-11-30T02:04:29.019Z,16.39
2016-11-30T02:04:56.993Z,16.39
2016-11-30T02:05:25.238Z,16.37
2016-11-30T02:05:53.326Z,16.34
2016-11-30T02:06:21.410Z,16.39
2016-11-30T02:06:49.579Z,16.4
2016-11-30T02:07:17.845Z,16.36
2016-11-30T02:07:46.086Z,16.42
2016-11-30T02:08:14.277Z,16.39
2016-11-30T02:08:42.249Z,16.34
2016-11-30T02:09:10.422Z,16.36
2016-11-30T02:10:10.158Z,16.4
2016-11-30T02:10:38.513Z,16.4
2016-11-30T02:11:06.611Z,16.37
2016-11-30T02:11:34.813Z,16.42
2016-11-30T02:12:03.213Z,16.4
2016-11-30T02:12:31.379Z,16.42
2016-11-30T02:12:59.463Z,16.34
2016-11-30T02:14:10.573Z,16.36
2016-11-30T02:14:38.637Z,16.36
2016-11-30T02:15:06.834Z,16.33
2016-11-30T02:15:35.105Z,16.34
2016-11-30T02:16:03.199Z,16.34
2016-11-30T02:16:31.379Z,16.37
2016-11-30T02:16:59.634Z,16.37
2016-11-30T02:17:27.735Z,16.29
2016-11-30T02:17:55.988Z,16.39
2016-11-30T02:18:24.072Z,16.4
2016-11-30T02:18:52.239Z,16.39
2016-11-30T02:19:20.379Z,16.34
2016-11-30T02:19:48.647Z,16.39
2016-11-30T02:20:16.620Z,16.39
2016-11-30T02:20:44.810Z,16.45
2016-11-30T02:21:12.904Z,16.37
2016-11-30T02:21:41.209Z,16.36
2016-11-30T02:22:09.551Z,16.42
2016-11-30T02:22:37.825Z,16.39
2016-11-30T02:23:05.949Z,16.39
2016-11-30T02:23:34.119Z,16.39
2016-11-30T02:24:02.157Z,16.36
2016-11-30T02:24:30.329Z,16.36
2016-11-30T02:24:58.453Z,16.32
2016-11-30T02:25:26.665Z,16.37
2016-11-30T02:25:54.826Z,16.32
2016-11-30T02:26:23.051Z,16.26
2016-11-30T02:26:51.041Z,16.25
2016-11-30T02:27:19.271Z,16.22
2016-11-30T02:27:47.567Z,16.21
2016-11-30T02:28:15.760Z,16.16
2016-11-30T02:28:43.848Z,16.1
2016-11-30T02:29:11.926Z,16.13
2016-11-30T02:29:39.961Z,16.04
2016-11-30T02:30:07.941Z,15.95
2016-11-30T02:31:18.907Z,15.84
2016-11-30T02:31:47.068Z,15.86
2016-11-30T02:32:15.422Z,15.88
2016-11-30T02:32:43.591Z,15.88
2016-11-30T02:33:11.543Z,15.86
2016-11-30T02:33:39.694Z,15.75
2016-11-30T02:34:07.797Z,15.84
2016-11-30T02:34:36.009Z,15.77
2016-11-30T02:35:41.562Z,15.81
2016-11-30T02:36:09.730Z,15.84
2016-11-30T02:36:37.796Z,15.92
2016-11-30T02:37:06.011Z,15.77
2016-11-30T02:37:34.262Z,15.88
2016-11-30T02:38:02.418Z,15.81
2016-11-30T02:38:30.695Z,15.81
2016-11-30T02:38:58.668Z,15.89
2016-11-30T02:39:26.999Z,15.75
2016-11-30T02:39:55.323Z,15.77
2016-11-30T02:40:23.521Z,15.74
2016-11-30T02:40:51.674Z,15.78
2016-11-30T02:41:19.917Z,15.77
2016-11-30T02:41:47.910Z,15.75
2016-11-30T02:42:15.969Z,15.77
2016-11-30T02:42:44.120Z,15.74
2016-11-30T02:43:12.382Z,15.73
2016-11-30T02:44:12.283Z,15.75
2016-11-30T02:44:40.292Z,15.77
2016-11-30T02:45:08.292Z,15.73
2016-11-30T02:45:36.460Z,15.74
2016-11-30T02:46:04.517Z,15.67
2016-11-30T02:46:32.513Z,15.75
2016-11-30T02:47:00.495Z,15.71
2016-11-30T02:47:28.753Z,15.73
2016-11-30T02:48:17.349Z,15.71
2016-11-30T02:48:45.421Z,15.68
2016-11-30T02:49:13.481Z,15.67
2016-11-30T02:49:41.649Z,15.7
2016-11-30T02:50:09.782Z,15.71
2016-11-30T02:50:37.860Z,15.65
2016-11-30T02:51:05.951Z,15.67
2016-11-30T02:51:34.091Z,15.7
2016-11-30T02:52:02.070Z,15.71
2016-11-30T02:52:30.229Z,15.7
2016-11-30T02:52:58.334Z,15.62
2016-11-30T02:54:09.285Z,15.71
2016-11-30T02:54:37.553Z,15.74
2016-11-30T02:55:05.593Z,15.71
2016-11-30T02:55:33.735Z,15.68
2016-11-30T02:56:02.005Z,15.63
2016-11-30T02:56:30.176Z,15.73
2016-11-30T02:56:58.303Z,15.71
2016-11-30T02:57:26.573Z,15.71
2016-11-30T02:57:54.652Z,15.74
2016-11-30T02:58:22.776Z,15.73
2016-11-30T02:58:51.001Z,15.75
2016-11-30T02:59:19.170Z,15.7
2016-11-30T02:59:47.396Z,15.7
2016-11-30T03:00:15.367Z,15.84
2016-11-30T03:00:43.478Z,15.67
2016-11-30T03:01:31.966Z,15.71
2016-11-30T03:01:59.891Z,15.65
2016-11-30T03:02:28.274Z,15.68
2016-11-30T03:02:56.451Z,15.68
2016-11-30T03:03:24.657Z,15.63
2016-11-30T03:03:52.680Z,15.63
2016-11-30T03:04:21.042Z,15.65
2016-11-30T03:05:26.497Z,15.65
2016-11-30T03:05:54.560Z,15.71
2016-11-30T03:06:22.748Z,15.73
2016-11-30T03:06:50.762Z,15.75
2016-11-30T03:07:18.927Z,15.71
2016-11-30T03:08:07.646Z,15.7
2016-11-30T03:08:35.641Z,15.75
2016-11-30T03:09:03.834Z,15.74
2016-11-30T03:09:31.863Z,15.68
2016-11-30T03:09:59.919Z,15.67
2016-11-30T03:10:27.722Z,15.67
2016-11-30T03:10:55.649Z,15.68
2016-11-30T03:11:23.518Z,15.71
2016-11-30T03:11:51.661Z,15.67
2016-11-30T03:12:19.880Z,15.7
2016-11-30T03:12:47.958Z,15.68
2016-11-30T03:13:16.029Z,15.67
2016-11-30T03:13:44.056Z,15.68
2016-11-30T03:14:12.279Z,15.73
2016-11-30T03:14:40.550Z,15.58
2016-11-30T03:15:08.545Z,15.65
2016-11-30T03:15:36.651Z,15.67
2016-11-30T03:16:04.731Z,15.71
2016-11-30T03:16:32.976Z,15.67
2016-11-30T03:17:00.867Z,15.65
2016-11-30T03:17:29.029Z,15.67
2016-11-30T03:17:57.046Z,15.62
2016-11-30T03:18:25.288Z,15.67
2016-11-30T03:18:53.281Z,15.63
2016-11-30T03:19:21.299Z,15.68
2016-11-30T03:19:49.483Z,15.58
2016-11-30T03:20:17.649Z,15.6
2016-11-30T03:20:45.890Z,15.63
2016-11-30T03:21:13.993Z,15.68
2016-11-30T03:22:08.125Z,15.67
2016-11-30T03:22:36.392Z,15.63
2016-11-30T03:23:04.593Z,15.6
2016-11-30T03:23:32.734Z,15.65
2016-11-30T03:24:00.906Z,15.7
2016-11-30T03:24:28.974Z,15.6
2016-11-30T03:25:39.839Z,15.67
2016-11-30T03:26:08.126Z,15.63
2016-11-30T03:26:35.972Z,15.73
2016-11-30T03:27:04.067Z,15.65
2016-11-30T03:27:31.975Z,15.63
2016-11-30T03:28:00.135Z,15.65
2016-11-30T03:28:27.936Z,15.67
2016-11-30T03:28:56.122Z,15.71
2016-11-30T03:29:24.353Z,15.67
2016-11-30T03:29:52.504Z,15.68
2016-11-30T03:30:20.687Z,15.65
2016-11-30T03:30:48.775Z,15.68
2016-11-30T03:31:16.890Z,15.68
2016-11-30T03:32:28.045Z,15.74
2016-11-30T03:32:56.128Z,15.74
2016-11-30T03:33:56.010Z,15.77
2016-11-30T03:34:24.053Z,15.74
2016-11-30T03:34:52.250Z,15.75
2016-11-30T03:35:20.399Z,15.75
2016-11-30T03:35:48.602Z,15.7
2016-11-30T03:36:16.887Z,15.73
2016-11-30T03:36:45.072Z,15.74
2016-11-30T03:37:39.422Z,15.7
2016-11-30T03:38:07.505Z,15.75
2016-11-30T03:38:35.784Z,15.73
2016-11-30T03:39:04.164Z,15.67
2016-11-30T03:39:32.398Z,15.71
2016-11-30T03:40:00.456Z,15.67
2016-11-30T03:40:28.766Z,15.63
2016-11-30T03:40:57.069Z,15.73
2016-11-30T03:41:25.128Z,15.71
2016-11-30T03:41:53.320Z,15.71
2016-11-30T03:42:21.659Z,15.71
2016-11-30T03:42:49.906Z,15.65
2016-11-30T03:43:17.982Z,15.74
2016-11-30T03:43:46.060Z,15.65
2016-11-30T03:44:14.436Z,15.7
2016-11-30T03:44:42.700Z,15.71
2016-11-30T03:45:10.794Z,15.67
2016-11-30T03:45:39.049Z,15.71
2016-11-30T03:46:07.154Z,15.7
2016-11-30T03:46:35.344Z,15.73
2016-11-30T03:47:03.433Z,15.68
2016-11-30T03:47:31.602Z,15.59
2016-11-30T03:47:59.614Z,15.6
2016-11-30T03:48:27.786Z,15.63
2016-11-30T03:48:55.895Z,15.63
2016-11-30T03:49:23.652Z,15.62
2016-11-30T03:49:51.802Z,15.6
2016-11-30T03:50:19.985Z,15.58
2016-11-30T03:50:48.144Z,15.65
2016-11-30T03:51:16.380Z,15.63
2016-11-30T03:51:44.401Z,15.6
2016-11-30T03:52:12.566Z,15.55
2016-11-30T03:53:12.262Z,15.67
2016-11-30T03:53:40.502Z,15.56
2016-11-30T03:54:08.771Z,15.55
2016-11-30T03:54:36.763Z,15.56
2016-11-30T03:55:04.746Z,15.53
2016-11-30T03:55:32.851Z,15.53
2016-11-30T03:56:00.863Z,15.45
2016-11-30T03:56:29.134Z,15.52
2016-11-30T03:56:57.194Z,15.45
2016-11-30T03:57:25.284Z,15.49
2016-11-30T03:57:53.328Z,15.43
2016-11-30T03:58:21.518Z,15.49
2016-11-30T03:58:49.587Z,15.47
2016-11-30T03:59:17.799Z,15.52
2016-11-30T03:59:45.837Z,15.47
2016-11-30T04:00:13.807Z,15.51
2016-11-30T04:00:41.812Z,15.49
2016-11-30T04:01:09.983Z,15.45
2016-11-30T04:01:38.266Z,15.51
2016-11-30T04:02:06.441Z,15.52
2016-11-30T04:02:34.623Z,15.47
2016-11-30T04:03:02.782Z,15.49
2016-11-30T04:03:30.785Z,15.45
2016-11-30T04:03:58.889Z,15.51
2016-11-30T04:04:26.982Z,15.45
2016-11-30T04:04:55.152Z,15.37
2016-11-30T04:05:23.210Z,15.35
2016-11-30T04:05:51.225Z,15.43
2016-11-30T04:06:19.168Z,15.35
2016-11-30T04:06:47.461Z,15.4
2016-11-30T04:07:15.710Z,15.4
2016-11-30T04:07:43.972Z,15.45
2016-11-30T04:08:12.173Z,15.47
2016-11-30T04:08:40.171Z,15.47
2016-11-30T04:09:08.418Z,15.38
2016-11-30T04:09:36.582Z,15.37
2016-11-30T04:10:04.740Z,15.34
2016-11-30T04:10:32.848Z,15.41
2016-11-30T04:11:01.100Z,15.33
2016-11-30T04:11:29.240Z,15.3
2016-11-30T04:11:57.301Z,15.33
2016-11-30T04:12:25.503Z,15.37
2016-11-30T04:12:53.620Z,15.37
2016-11-30T04:13:21.893Z,15.31
2016-11-30T04:13:49.909Z,15.43
2016-11-30T04:15:01.051Z,15.38
2016-11-30T04:15:29.240Z,15.35
2016-11-30T04:15:57.303Z,15.34
2016-11-30T04:16:25.381Z,15.38
2016-11-30T04:16:53.454Z,15.33
2016-11-30T04:17:21.533Z,15.38
2016-11-30T04:17:49.845Z,15.4
2016-11-30T04:18:17.916Z,15.45
2016-11-30T04:18:45.806Z,15.37
2016-11-30T04:19:14.004Z,15.38
2016-11-30T04:19:42.343Z,15.26
2016-11-30T04:20:10.497Z,15.26
2016-11-30T04:20:38.719Z,15.34
2016-11-30T04:21:06.890Z,15.25
2016-11-30T04:21:34.977Z,15.33
2016-11-30T04:22:03.139Z,15.33
2016-11-30T04:22:31.326Z,15.33
2016-11-30T04:22:59.386Z,15.31
2016-11-30T04:23:27.547Z,15.31
2016-11-30T04:23:55.646Z,15.34
2016-11-30T04:24:23.797Z,15.34
2016-11-30T04:24:51.888Z,15.37
2016-11-30T04:25:19.929Z,15.3
2016-11-30T04:25:48.106Z,15.33
2016-11-30T04:26:15.987Z,15.3
2016-11-30T04:26:43.949Z,15.35
2016-11-30T04:27:12.109Z,15.38
2016-11-30T04:27:40.253Z,15.23
2016-11-30T04:28:08.525Z,15.25
2016-11-30T04:28:36.650Z,15.31
2016-11-30T04:29:04.800Z,15.26
2016-11-30T04:29:33.086Z,15.3
2016-11-30T04:30:01.351Z,15.26
2016-11-30T04:30:29.412Z,15.23
2016-11-30T04:30:57.679Z,15.3
2016-11-30T04:31:25.720Z,15.3
2016-11-30T04:31:53.987Z,15.33
2016-11-30T04:32:22.178Z,15.31
2016-11-30T04:32:50.237Z,15.31
2016-11-30T04:33:44.520Z,15.27
2016-11-30T04:34:12.702Z,15.25
2016-11-30T04:34:41.072Z,15.23
2016-11-30T04:35:09.371Z,15.23
2016-11-30T04:35:37.530Z,15.22
2016-11-30T04:36:05.678Z,15.23
2016-11-30T04:36:33.812Z,15.27
2016-11-30T04:37:01.895Z,15.3
2016-11-30T04:37:30.089Z,15.3
2016-11-30T04:37:58.263Z,15.27
2016-11-30T04:39:09.170Z,15.26
2016-11-30T04:39:37.592Z,15.27
2016-11-30T04:40:05.808Z,15.3
2016-11-30T04:40:33.760Z,15.27
2016-11-30T04:41:01.954Z,15.19
2016-11-30T04:41:30.095Z,15.27
2016-11-30T04:41:58.200Z,15.22
2016-11-30T04:42:26.307Z,15.23
2016-11-30T04:42:54.292Z,15.27
2016-11-30T04:43:22.276Z,15.27
2016-11-30T04:43:50.432Z,15.23
2016-11-30T04:44:18.428Z,15.25
2016-11-30T04:44:46.713Z,15.25
2016-11-30T04:45:14.692Z,15.25
2016-11-30T04:45:42.765Z,15.34
2016-11-30T04:46:10.646Z,15.3
2016-11-30T04:46:38.807Z,15.27
2016-11-30T04:47:06.786Z,15.31
2016-11-30T04:47:34.815Z,15.23
2016-11-30T04:48:02.989Z,15.23
2016-11-30T04:48:30.979Z,15.26
2016-11-30T04:48:59.006Z,15.3
2016-11-30T04:49:27.066Z,15.27
2016-11-30T04:49:55.406Z,15.25
2016-11-30T04:50:23.573Z,15.3
2016-11-30T04:50:51.764Z,15.26
2016-11-30T04:51:19.676Z,15.22
2016-11-30T04:52:19.456Z,15.3
2016-11-30T04:52:47.443Z,15.31
2016-11-30T04:53:15.387Z,15.27
2016-11-30T04:53:43.364Z,15.27
2016-11-30T04:54:11.221Z,15.3
2016-11-30T04:54:39.361Z,15.25
2016-11-30T04:55:07.363Z,15.23
2016-11-30T04:55:35.504Z,15.26
2016-11-30T04:56:03.585Z,15.3
2016-11-30T04:56:31.485Z,15.33
2016-11-30T04:56:59.599Z,15.27
2016-11-30T04:57:27.665Z,15.31
2016-11-30T04:57:55.575Z,15.33
2016-11-30T04:58:23.722Z,15.34
2016-11-30T04:58:51.908Z,15.33
2016-11-30T04:59:19.764Z,15.27
2016-11-30T04:59:47.908Z,15.27
2016-11-30T05:00:15.972Z,15.3
2016-11-30T05:00:44.104Z,15.3
2016-11-30T05:01:12.065Z,15.33
2016-11-30T05:01:40.210Z,15.26
2016-11-30T05:02:08.398Z,15.27
2016-11-30T05:02:36.320Z,15.26
2016-11-30T05:03:04.242Z,15.27
2016-11-30T05:03:32.276Z,15.26
2016-11-30T05:04:00.344Z,15.31
2016-11-30T05:04:28.555Z,15.25
2016-11-30T05:04:56.609Z,15.31
2016-11-30T05:05:24.896Z,15.26
2016-11-30T05:05:52.871Z,15.22
2016-11-30T05:06:20.855Z,15.35
2016-11-30T05:06:48.781Z,15.37
2016-11-30T05:07:16.584Z,15.37
2016-11-30T05:07:44.658Z,15.34
2016-11-30T05:08:12.945Z,15.43
2016-11-30T05:08:41.191Z,15.33
2016-11-30T05:09:09.292Z,15.35
2016-11-30T05:09:37.579Z,15.3
2016-11-30T05:10:05.894Z,15.38
2016-11-30T05:10:33.890Z,15.26
2016-11-30T05:11:02.139Z,15.34
2016-11-30T05:11:30.317Z,15.26
2016-11-30T05:11:58.674Z,15.41
2016-11-30T05:12:26.951Z,15.44
2016-11-30T05:12:55.083Z,15.35
2016-11-30T05:13:23.204Z,15.4
2016-11-30T05:13:51.309Z,15.4
2016-11-30T05:14:19.269Z,15.41
2016-11-30T05:14:47.317Z,15.43
2016-11-30T05:15:15.793Z,15.47
2016-11-30T05:15:43.960Z,15.35
2016-11-30T05:16:11.942Z,15.4
2016-11-30T05:16:40.101Z,15.37
2016-11-30T05:17:08.202Z,15.41
2016-11-30T05:17:36.406Z,15.4
2016-11-30T05:18:04.312Z,15.37
2016-11-30T05:18:32.331Z,15.4
2016-11-30T05:19:00.402Z,15.37
2016-11-30T05:19:28.375Z,15.38
2016-11-30T05:19:56.849Z,15.38
2016-11-30T05:20:25.066Z,15.35
2016-11-30T05:20:53.123Z,15.35
2016-11-30T05:21:21.227Z,15.37
2016-11-30T05:21:49.223Z,15.38
2016-11-30T05:22:17.215Z,15.51
2016-11-30T05:22:45.236Z,15.52
2016-11-30T05:23:13.209Z,15.47
2016-11-30T05:23:41.320Z,15.47
2016-11-30T05:24:09.319Z,15.47
2016-11-30T05:24:37.217Z,15.51
2016-11-30T05:25:48.359Z,15.53
2016-11-30T05:26:16.421Z,15.51
2016-11-30T05:26:44.203Z,15.62
2016-11-30T05:27:12.290Z,15.59
2016-11-30T05:27:40.299Z,15.53
2016-11-30T05:28:08.295Z,15.51
2016-11-30T05:28:36.283Z,15.53
2016-11-30T05:29:04.439Z,15.58
2016-11-30T05:29:32.696Z,15.56
2016-11-30T05:30:01.127Z,15.65
2016-11-30T05:30:29.180Z,15.62
2016-11-30T05:30:57.287Z,15.65
2016-11-30T05:31:25.207Z,15.65
2016-11-30T05:31:53.281Z,15.59
2016-11-30T05:32:21.353Z,15.58
2016-11-30T05:32:49.344Z,15.55
2016-11-30T05:33:17.175Z,15.56
2016-11-30T05:33:45.169Z,15.59
2016-11-30T05:34:13.148Z,15.58
2016-11-30T05:34:41.177Z,15.65
2016-11-30T05:35:09.494Z,15.53
2016-11-30T05:35:37.521Z,15.55
2016-11-30T05:36:05.407Z,15.56
2016-11-30T05:36:33.570Z,15.59
2016-11-30T05:37:01.572Z,15.51
2016-11-30T05:37:29.428Z,15.53
2016-11-30T05:37:57.682Z,15.56
2016-11-30T05:38:25.660Z,15.58
2016-11-30T05:38:53.679Z,15.45
2016-11-30T05:39:21.666Z,15.47
2016-11-30T05:39:49.692Z,15.59
2016-11-30T05:40:17.905Z,15.49
2016-11-30T05:40:45.909Z,15.55
2016-11-30T05:41:14.105Z,15.56
2016-11-30T05:41:42.308Z,15.56
2016-11-30T05:42:10.316Z,15.6
2016-11-30T05:42:38.209Z,15.45
2016-11-30T05:43:06.376Z,15.59
2016-11-30T05:43:34.493Z,15.45
2016-11-30T05:44:02.592Z,15.51
2016-11-30T05:44:30.832Z,15.58
2016-11-30T05:44:58.820Z,15.49
2016-11-30T05:45:27.156Z,15.51
2016-11-30T05:45:55.080Z,15.45
2016-11-30T05:46:22.912Z,15.44
2016-11-30T05:46:50.982Z,15.43
2016-11-30T05:47:18.951Z,15.44
2016-11-30T05:47:46.852Z,15.44
2016-11-30T05:48:14.809Z,15.4
2016-11-30T05:48:42.579Z,15.51
2016-11-30T05:49:10.689Z,15.47
2016-11-30T05:49:38.696Z,15.41
2016-11-30T05:50:06.964Z,15.43
2016-11-30T05:50:35.387Z,15.52
2016-11-30T05:51:03.246Z,15.45
2016-11-30T05:51:31.465Z,15.4
2016-11-30T05:51:59.501Z,15.51
2016-11-30T05:52:27.527Z,15.52
2016-11-30T05:52:55.736Z,15.47
2016-11-30T05:53:23.818Z,15.45
2016-11-30T05:53:51.847Z,15.37
2016-11-30T05:54:19.755Z,15.41
2016-11-30T05:54:47.582Z,15.35
2016-11-30T05:55:15.805Z,15.35
2016-11-30T05:55:43.701Z,15.4
2016-11-30T05:56:11.833Z,15.34
2016-11-30T05:56:39.711Z,15.38
2016-11-30T05:57:07.830Z,15.34
2016-11-30T05:57:35.703Z,15.37
2016-11-30T05:58:03.834Z,15.45
2016-11-30T05:58:31.786Z,15.38
2016-11-30T05:59:00.074Z,15.37
2016-11-30T05:59:28.052Z,15.37
2016-11-30T05:59:56.296Z,15.38
2016-11-30T06:00:24.507Z,15.34
2016-11-30T06:00:52.555Z,15.35
2016-11-30T06:01:20.511Z,15.41
2016-11-30T06:01:48.492Z,15.38
2016-11-30T06:02:16.473Z,15.35
2016-11-30T06:02:44.598Z,15.38
2016-11-30T06:03:12.746Z,15.41
2016-11-30T06:03:40.879Z,15.37
2016-11-30T06:04:08.747Z,15.38
2016-11-30T06:04:36.827Z,15.45
2016-11-30T06:05:04.803Z,15.34
2016-11-30T06:05:33.073Z,15.37
2016-11-30T06:06:01.241Z,15.38
2016-11-30T06:06:29.301Z,15.31
2016-11-30T06:07:34.622Z,15.33
2016-11-30T06:08:02.509Z,15.33
2016-11-30T06:08:30.600Z,15.26
2016-11-30T06:08:58.660Z,15.3
2016-11-30T06:09:26.745Z,15.25
2016-11-30T06:10:20.932Z,15.34
2016-11-30T06:10:48.975Z,15.25
2016-11-30T06:11:17.249Z,15.26
2016-11-30T06:11:45.476Z,15.15
2016-11-30T06:12:13.500Z,15.23
2016-11-30T06:12:41.395Z,15.25
2016-11-30T06:13:09.603Z,15.13
2016-11-30T06:13:37.796Z,15.19
2016-11-30T06:15:45.603Z,15.23
2016-11-30T06:16:13.656Z,15.1
2016-11-30T06:16:41.621Z,15.16
2016-11-30T06:17:09.575Z,15.13
2016-11-30T06:17:37.562Z,15.05
2016-11-30T06:18:05.595Z,15.1
2016-11-30T06:18:33.663Z,15.12
2016-11-30T06:19:01.627Z,15.12
2016-11-30T06:19:29.733Z,15.08
2016-11-30T06:19:57.928Z,15.15
2016-11-30T06:20:25.980Z,15.08
2016-11-30T06:20:54.000Z,15.04
2016-11-30T06:21:22.091Z,15.08